Briefing drone pour Bourg-de-peage

Rechercher une autre localisation

Conditions de vol :


Nous sommes le : Mardi 27 octobre 2020
Il est 01:10 UTC (02:10 LT)

Lever de soleil : 05:45 UTC (06:45 LT)
Coucher de soleil : 17:01 UTC (18:01 LT)

Météo

L'essentiel des conditions de vol

VIGILANCE MÉTÉO FRANCE - Drôme (26)
Pas de vigilances particulieres
CARTE TEMSI
CARTES DES FRONTS
METAR de LFLU
LFLU 261800Z AUTO 33004KT 9999 FEW048/// OVC066/// ///TCU 10/08 Q1010

Date d'émission: 26/10/2020
Heure d'émission: 18:00 UTC
Vent: 330° pour 4 KT (7 km/h)
Visibilité horizontale: > 10 km
Plafond :
- Peu de nuages à 4800ft (1463m)
- Couvert à 6600ft (2012m)
Température: 10 °C
Point de rosée: 8 °C
Humidité: 87%
Pression (QNH): 1010 hPa
Prévision 24h pour Valence (10 km)
Vent : 164° pour 1 KT (4 km/h)
Temperature Maxi: 11 °C
Temperature Min: 11 °C
Humidité : 73%
Condition : Légère pluie



Warning: count(): Parameter must be an array or an object that implements Countable in /homepages/6/d509196549/htdocs/droneoxygene/briefing.php on line 743
WEBCAM POUR BOURG-DE-PEAGE

Réglementation

Voler en sécurité

CARTES AERONAUTIQUE 1/500.000
CARTES VAC (LFLU)
SUP AIP




Chargement des AIP...
NOTAM (BOURG-DE-PEAGE + Terrain à proximité / FIR )




Chargement des NOTAMS...
CONTACT PREFECTURE 26
Drôme (26) : ddt-sdsr@drome.gouv.fr


Avertissement : Les données mises à disposition sont indicatives. Oxygène Drone ne pourra être tenu responsable de dégâts causés aux biens et aux personnes.